Time;durP1;ratioP1;P1;durP2;ratioP2;P2;SDS_P1;SDS_P2;PMS_P1;PMS_P2;Temp;Humidity;BMP_temperature;BMP_pressure;BME280_temperature;BME280_humidity;BME280_pressure;Samples;Min_cycle;Max_cycle;Signal;HPM_P1;HPM_P2
2021/10/06 00:01:53;;;;;;;21.77;16.27;;;;;;;9.81;64.03;102697.78;1757880;81;21078;-74
2021/10/06 00:04:20;;;;;;;21.27;15.30;;;;;;;9.77;64.17;102697.43;1757933;80;20900;-74
2021/10/06 00:06:47;;;;;;;24.63;18.15;;;;;;;9.73;64.28;102702.32;1758054;80;21948;-74
2021/10/06 00:09:14;;;;;;;24.95;18.65;;;;;;;9.69;64.55;102695.42;1758037;81;20923;-73
2021/10/06 00:11:43;;;;;;;28.12;20.77;;;;;;;9.66;64.74;102700.74;1757821;80;20849;-74
2021/10/06 00:14:11;;;;;;;26.50;19.48;;;;;;;9.64;64.93;102702.53;1757768;80;21517;-74
2021/10/06 00:16:38;;;;;;;26.02;20.43;;;;;;;9.61;64.93;102706.09;1757785;80;21424;-74
2021/10/06 00:19:04;;;;;;;30.12;20.70;;;;;;;9.58;65.03;102707.91;1757927;80;21108;-73
2021/10/06 00:21:31;;;;;;;25.10;19.52;;;;;;;9.54;65.08;102706.67;1757997;81;20908;-74
2021/10/06 00:23:58;;;;;;;30.50;19.50;;;;;;;9.50;65.22;102705.47;1757910;81;20888;-73
2021/10/06 00:26:25;;;;;;;30.82;18.57;;;;;;;9.45;65.24;102698.14;1757909;81;20872;-74
2021/10/06 00:28:52;;;;;;;23.30;16.12;;;;;;;9.42;65.39;102706.07;1757885;80;20888;-74
2021/10/06 00:31:19;;;;;;;21.60;16.42;;;;;;;9.37;65.42;102696.16;1758166;81;21101;-73
2021/10/06 00:33:45;;;;;;;22.85;16.23;;;;;;;9.33;65.66;102707.98;1758076;81;20912;-73
2021/10/06 00:36:12;;;;;;;25.45;16.02;;;;;;;9.31;65.81;102704.53;1757778;81;21030;-73
2021/10/06 00:38:39;;;;;;;24.18;15.48;;;;;;;9.28;65.89;102701.98;1757808;81;20940;-73
2021/10/06 00:41:06;;;;;;;18.27;14.35;;;;;;;9.27;66.03;102715.99;1757941;80;20920;-74
2021/10/06 00:43:33;;;;;;;28.27;14.38;;;;;;;9.26;66.19;102710.77;1757869;81;21484;-72
2021/10/06 00:46:00;;;;;;;22.50;14.68;;;;;;;9.23;66.13;102711.70;1758172;81;20920;-72
2021/10/06 00:48:27;;;;;;;26.80;16.67;;;;;;;9.20;66.19;102710.44;1757777;81;21018;-73
2021/10/06 00:50:53;;;;;;;24.35;14.50;;;;;;;9.18;66.30;102714.87;1758067;80;20931;-73
2021/10/06 00:53:25;;;;;;;21.95;13.88;;;;;;;9.16;66.28;102717.08;1758214;81;20920;-73
2021/10/06 00:55:52;;;;;;;25.45;11.97;;;;;;;9.12;66.28;102722.39;1757773;81;21818;-74
2021/10/06 00:58:18;;;;;;;22.75;14.00;;;;;;;9.09;66.40;102721.16;1757969;80;20939;-73
2021/10/06 01:00:45;;;;;;;26.75;14.30;;;;;;;9.08;66.69;102726.41;1757944;81;20916;-74
2021/10/06 01:03:13;;;;;;;25.40;14.55;;;;;;;9.07;66.81;102721.63;1758011;81;21458;-74
2021/10/06 01:05:40;;;;;;;19.73;12.85;;;;;;;9.07;66.92;102724.25;1758000;81;20963;-74
2021/10/06 01:08:07;;;;;;;21.00;13.30;;;;;;;9.07;66.95;102724.25;1758185;81;21751;-73
2021/10/06 01:10:34;;;;;;;21.90;13.10;;;;;;;9.04;66.83;102721.67;1757890;81;20988;-73
2021/10/06 01:13:02;;;;;;;23.27;14.23;;;;;;;9.01;66.87;102724.81;1757866;81;20884;-73
2021/10/06 01:15:30;;;;;;;24.32;13.55;;;;;;;8.97;66.93;102728.37;1757781;80;21473;-73
2021/10/06 01:17:57;;;;;;;26.97;14.15;;;;;;;8.93;67.02;102725.80;1758082;81;20873;-73
2021/10/06 01:20:24;;;;;;;21.65;14.28;;;;;;;8.89;67.05;102733.31;1757950;81;22154;-73
2021/10/06 01:22:50;;;;;;;17.60;11.18;;;;;;;8.85;67.06;102729.03;1758020;81;20913;-73
2021/10/06 01:25:17;;;;;;;18.25;10.82;;;;;;;8.82;67.17;102729.06;1757991;80;21516;-74
2021/10/06 01:27:44;;;;;;;19.60;10.32;;;;;;;8.78;67.44;102733.97;1758260;81;20897;-73
2021/10/06 01:30:13;;;;;;;14.30;10.98;;;;;;;8.78;67.47;102736.58;1757930;81;20967;-72
2021/10/06 01:32:41;;;;;;;18.85;11.28;;;;;;;8.77;67.52;102736.15;1758293;81;21135;-73
2021/10/06 01:35:10;;;;;;;20.50;11.68;;;;;;;8.77;67.50;102736.60;1757837;81;20916;-73
2021/10/06 01:37:37;;;;;;;17.80;10.82;;;;;;;8.77;67.59;102737.91;1758383;80;21413;-73
2021/10/06 01:40:06;;;;;;;22.37;11.15;;;;;;;8.77;67.51;102738.77;1758137;81;21041;-73
2021/10/06 01:42:34;;;;;;;17.07;12.03;;;;;;;8.75;67.56;102748.84;1757946;80;21390;-74
2021/10/06 01:45:01;;;;;;;16.57;11.40;;;;;;;8.71;67.51;102741.06;1757802;81;21125;-73
2021/10/06 01:47:28;;;;;;;18.90;10.43;;;;;;;8.67;67.49;102742.00;1757816;81;20963;-73
2021/10/06 01:49:55;;;;;;;20.35;11.25;;;;;;;8.62;67.47;102738.58;1757725;81;20928;-74
2021/10/06 01:52:23;;;;;;;20.48;11.88;;;;;;;8.58;67.57;102736.94;1757708;80;20841;-73
2021/10/06 01:54:54;;;;;;;21.20;12.00;;;;;;;8.53;67.74;102739.20;1758075;81;20999;-74
2021/10/06 01:57:21;;;;;;;18.92;10.05;;;;;;;8.52;67.90;102740.11;1757723;81;21155;-74
2021/10/06 01:59:49;;;;;;;18.98;11.80;;;;;;;8.50;67.94;102748.83;1748347;80;20976;-74
2021/10/06 02:02:17;;;;;;;21.60;11.20;;;;;;;8.52;68.00;102741.41;1744364;81;21331;-75
2021/10/06 02:04:44;;;;;;;23.02;11.68;;;;;;;8.53;68.01;102742.67;1744702;81;20908;-74
2021/10/06 02:07:11;;;;;;;18.23;10.35;;;;;;;8.55;67.94;102747.44;1744499;81;20960;-74
2021/10/06 02:09:38;;;;;;;15.75;10.15;;;;;;;8.57;67.90;102749.58;1744812;80;22105;-75
2021/10/06 02:12:05;;;;;;;19.25;10.78;;;;;;;8.60;67.82;102749.97;1744428;80;20849;-74
2021/10/06 02:14:32;;;;;;;21.00;10.38;;;;;;;8.61;67.71;102751.71;1744508;81;20960;-74
2021/10/06 02:16:59;;;;;;;20.30;10.20;;;;;;;8.61;67.58;102748.64;1744495;80;20937;-73
2021/10/06 02:19:26;;;;;;;22.60;10.80;;;;;;;8.63;67.51;102741.64;1744787;81;21374;-73
2021/10/06 02:21:52;;;;;;;18.15;9.88;;;;;;;8.65;67.62;102742.92;1744531;81;21126;-74
2021/10/06 02:24:19;;;;;;;19.20;11.33;;;;;;;8.70;67.52;102741.08;1744618;80;20933;-74
2021/10/06 02:26:45;;;;;;;18.30;10.78;;;;;;;8.74;67.44;102747.09;1744452;81;20838;-74
2021/10/06 02:29:12;;;;;;;18.82;11.05;;;;;;;8.77;67.45;102741.38;1744780;81;20889;-73
2021/10/06 02:31:39;;;;;;;19.37;12.00;;;;;;;8.80;67.27;102758.31;1744700;81;21043;-74
2021/10/06 02:34:06;;;;;;;20.45;11.45;;;;;;;8.81;67.06;102749.59;1744717;81;21490;-73
2021/10/06 02:36:33;;;;;;;18.15;11.00;;;;;;;8.81;66.95;102756.14;1744387;81;20881;-74
2021/10/06 02:39:00;;;;;;;20.15;11.90;;;;;;;8.82;66.83;102750.00;1744653;81;20956;-73
2021/10/06 02:41:27;;;;;;;18.82;12.13;;;;;;;8.82;66.79;102754.38;1744420;81;21015;-72
2021/10/06 02:43:54;;;;;;;18.80;11.57;;;;;;;8.81;66.72;102756.59;1744594;81;21354;-74
2021/10/06 02:46:21;;;;;;;22.40;11.03;;;;;;;8.80;66.63;102760.08;1744766;81;21459;-74
2021/10/06 02:48:48;;;;;;;16.35;10.60;;;;;;;8.77;66.52;102757.08;1744456;81;20885;-73
2021/10/06 02:51:15;;;;;;;19.65;9.38;;;;;;;8.77;66.49;102761.00;1744891;81;21446;-74
2021/10/06 02:53:42;;;;;;;13.98;8.08;;;;;;;8.76;66.44;102753.17;1744594;82;20885;-73
2021/10/06 02:56:08;;;;;;;12.43;8.23;;;;;;;8.69;66.26;102755.92;1744830;81;20984;-75
2021/10/06 02:58:35;;;;;;;13.18;7.75;;;;;;;8.73;66.01;102766.31;1745425;81;21575;-73
2021/10/06 03:01:02;;;;;;;15.38;7.62;;;;;;;8.69;65.88;102766.38;1757828;80;21501;-74
2021/10/06 03:03:29;;;;;;;15.13;8.03;;;;;;;8.66;65.68;102767.72;1757980;80;20884;-73
2021/10/06 03:05:55;;;;;;;10.38;7.25;;;;;;;8.61;65.58;102768.71;1757814;80;20885;-72
2021/10/06 03:08:22;;;;;;;10.45;7.17;;;;;;;8.57;65.61;102769.20;1757911;81;20920;-74
2021/10/06 03:10:49;;;;;;;9.65;6.72;;;;;;;8.52;65.66;102772.34;1757848;81;21340;-74
2021/10/06 03:13:16;;;;;;;9.18;6.50;;;;;;;8.45;65.69;102774.19;1757935;81;21520;-74
2021/10/06 03:15:44;;;;;;;9.83;5.53;;;;;;;8.40;65.53;102773.38;1757860;81;20884;-73
2021/10/06 03:18:11;;;;;;;12.13;6.33;;;;;;;8.35;65.49;102778.25;1757909;81;20908;-74
2021/10/06 03:20:38;;;;;;;12.58;6.47;;;;;;;8.29;65.61;102777.47;1757998;81;21374;-74
2021/10/06 03:23:07;;;;;;;8.08;5.47;;;;;;;8.26;65.49;102781.42;1758016;80;22185;-74
2021/10/06 03:25:35;;;;;;;16.87;6.83;;;;;;;8.23;65.29;102782.78;1757685;81;20888;-75
2021/10/06 03:28:01;;;;;;;15.40;8.35;;;;;;;8.19;65.30;102775.02;1757821;81;20924;-75
2021/10/06 03:30:28;;;;;;;17.95;7.05;;;;;;;8.16;65.02;102778.55;1757797;80;20940;-74
2021/10/06 03:32:55;;;;;;;9.25;6.10;;;;;;;8.13;64.42;102776.41;1757840;80;20979;-73
2021/10/06 03:35:22;;;;;;;10.28;6.80;;;;;;;8.07;64.39;102776.93;1758088;80;22120;-74
2021/10/06 03:37:50;;;;;;;9.38;6.35;;;;;;;8.03;64.17;102784.39;1757726;80;20877;-75
2021/10/06 03:40:17;;;;;;;13.72;7.90;;;;;;;7.97;63.62;102784.92;1757957;81;21559;-74
2021/10/06 03:42:44;;;;;;;12.55;5.97;;;;;;;7.88;63.25;102777.62;1758250;80;20924;-73
2021/10/06 03:45:11;;;;;;;14.83;7.08;;;;;;;7.80;63.04;102792.55;1757939;81;20926;-73
2021/10/06 03:47:39;;;;;;;15.75;6.72;;;;;;;7.74;63.06;102785.25;1757865;81;21587;-74
2021/10/06 03:50:07;;;;;;;15.53;6.62;;;;;;;7.68;63.29;102786.17;1757794;81;21015;-74
2021/10/06 03:52:33;;;;;;;15.88;7.33;;;;;;;7.62;63.35;102789.72;1758092;80;20861;-76
2021/10/06 03:55:02;;;;;;;8.70;6.58;;;;;;;7.58;63.61;102784.55;1757756;81;20948;-74
2021/10/06 03:57:30;;;;;;;10.90;6.40;;;;;;;7.56;63.79;102792.42;1757853;81;20976;-73
2021/10/06 03:59:57;;;;;;;9.83;6.10;;;;;;;7.51;63.84;102787.68;1751008;80;21140;-73
2021/10/06 04:02:23;;;;;;;13.03;6.50;;;;;;;7.44;63.89;102792.56;1744634;80;20878;-72
2021/10/06 04:04:51;;;;;;;13.15;5.87;;;;;;;7.44;63.72;102784.73;1744785;81;20960;-74
2021/10/06 04:07:18;;;;;;;10.23;5.72;;;;;;;7.43;63.25;102793.01;1744578;81;21019;-74
2021/10/06 04:09:45;;;;;;;12.23;6.03;;;;;;;7.42;62.74;102788.65;1744624;81;20881;-74
2021/10/06 04:12:11;;;;;;;9.15;5.50;;;;;;;7.41;62.33;102794.77;1744737;82;21490;-73
2021/10/06 04:14:38;;;;;;;14.58;7.03;;;;;;;7.39;62.00;102799.59;1744422;81;21429;-73
2021/10/06 04:17:05;;;;;;;9.88;5.22;;;;;;;7.35;61.68;102801.80;1744622;81;20913;-75
2021/10/06 04:19:33;;;;;;;10.13;6.08;;;;;;;7.31;61.42;102807.48;1744594;81;20982;-75
2021/10/06 04:22:00;;;;;;;14.93;6.75;;;;;;;7.28;61.02;102815.81;1744511;81;21097;-75
2021/10/06 04:24:26;;;;;;;12.15;6.65;;;;;;;7.22;60.62;102808.45;1744852;81;21451;-75
2021/10/06 04:26:53;;;;;;;12.13;6.50;;;;;;;7.19;60.63;102805.03;1744325;80;20909;-74
2021/10/06 04:29:20;;;;;;;15.38;7.87;;;;;;;7.14;60.51;102805.53;1744831;81;20968;-77
2021/10/06 04:31:47;;;;;;;15.20;8.15;;;;;;;7.12;60.36;102809.89;1744434;81;21592;-77
2021/10/06 04:34:14;;;;;;;20.08;10.35;;;;;;;7.08;60.43;102822.55;1744750;81;20826;-75
2021/10/06 04:36:42;;;;;;;16.02;10.58;;;;;;;7.06;60.14;102820.80;1744522;81;21114;-74
2021/10/06 04:39:08;;;;;;;22.45;11.57;;;;;;;7.04;60.18;102814.73;1744639;81;20975;-75
2021/10/06 04:41:35;;;;;;;17.92;10.58;;;;;;;7.04;59.93;102823.86;1744500;81;20857;-75
2021/10/06 04:44:02;;;;;;;17.48;10.10;;;;;;;7.04;59.93;102819.08;1744898;80;20885;-74
2021/10/06 04:46:30;;;;;;;14.73;8.55;;;;;;;7.04;59.33;102826.47;1744576;81;21441;-75
2021/10/06 04:48:57;;;;;;;17.95;9.40;;;;;;;7.04;59.44;102832.98;1744398;81;21124;-73
2021/10/06 04:51:24;;;;;;;19.20;9.33;;;;;;;7.08;59.27;102825.16;1744637;81;20854;-75
2021/10/06 04:53:51;;;;;;;17.87;8.18;;;;;;;7.11;59.42;102832.94;1744528;81;20991;-76
2021/10/06 04:56:18;;;;;;;13.40;7.08;;;;;;;7.12;58.78;102828.16;1744344;81;20996;-75
2021/10/06 04:58:45;;;;;;;16.07;6.72;;;;;;;7.13;57.96;102832.48;1744682;80;20897;-75
2021/10/06 05:01:12;;;;;;;23.15;7.15;;;;;;;7.14;57.94;102825.95;1744320;80;21113;-75
2021/10/06 05:03:40;;;;;;;13.98;6.60;;;;;;;7.16;57.55;102818.98;1744334;81;20964;-74
2021/10/06 05:06:07;;;;;;;15.25;6.90;;;;;;;7.21;57.79;102811.95;1744648;81;20972;-77
2021/10/06 05:08:34;;;;;;;20.92;7.05;;;;;;;7.29;57.81;102820.99;1744840;81;20941;-78
2021/10/06 05:11:02;;;;;;;14.07;6.45;;;;;;;7.33;57.55;102825.30;1744202;81;20987;-79
2021/10/06 05:13:29;;;;;;;12.45;6.70;;;;;;;7.37;57.59;102819.17;1744725;81;21803;-78
2021/10/06 05:15:58;;;;;;;14.33;5.28;;;;;;;7.42;57.56;102821.28;1744320;81;21003;-77
2021/10/06 05:18:25;;;;;;;17.35;6.47;;;;;;;7.45;57.41;102826.94;1744640;81;20885;-75
2021/10/06 05:20:52;;;;;;;12.40;6.78;;;;;;;7.50;57.16;102824.27;1744806;81;20940;-76
2021/10/06 05:23:18;;;;;;;17.05;5.83;;;;;;;7.53;56.50;102820.30;1744845;81;20944;-75
2021/10/06 05:25:45;;;;;;;16.87;5.90;;;;;;;7.60;56.70;102825.45;1744351;81;22144;-74
2021/10/06 05:28:12;;;;;;;21.17;6.67;;;;;;;7.75;55.80;102826.98;1744890;81;20945;-81
2021/10/06 05:30:38;;;;;;;19.50;6.75;;;;;;;7.88;55.47;102825.95;1744858;80;21003;-81
2021/10/06 05:33:06;;;;;;;15.08;6.25;;;;;;;8.02;54.93;102824.45;1744456;81;20886;-80
2021/10/06 05:35:32;;;;;;;16.87;5.78;;;;;;;8.23;53.87;102831.14;1744817;81;20861;-81
2021/10/06 05:37:59;;;;;;;11.40;5.60;;;;;;;8.69;53.03;102836.12;1744747;81;21101;-81
2021/10/06 05:40:26;;;;;;;14.25;5.50;;;;;;;9.40;51.92;102838.34;1744482;82;20858;-80
2021/10/06 05:42:53;;;;;;;13.28;5.37;;;;;;;10.21;49.91;102845.42;1744676;81;21458;-82
2021/10/06 05:45:20;;;;;;;11.75;5.40;;;;;;;11.01;49.03;102844.83;1744666;80;20909;-80
2021/10/06 05:47:47;;;;;;;13.25;5.72;;;;;;;11.77;46.35;102837.89;1744601;82;20873;-81
2021/10/06 05:50:13;;;;;;;17.67;6.05;;;;;;;12.47;44.75;102848.49;1744663;81;21897;-80
2021/10/06 05:52:40;;;;;;;12.60;5.33;;;;;;;13.13;43.48;102843.19;1744862;81;20885;-80
2021/10/06 05:55:08;;;;;;;16.80;5.87;;;;;;;13.74;41.95;102859.93;1744594;80;20905;-81
2021/10/06 05:57:35;;;;;;;9.78;4.85;;;;;;;14.35;40.77;102850.55;1744434;81;20897;-79
2021/10/06 06:00:05;;;;;;;10.48;5.72;;;;;;;14.81;39.47;102846.06;1744454;80;20971;-81
2021/10/06 06:02:33;;;;;;;12.28;6.22;;;;;;;15.28;38.48;102847.11;1744238;81;21159;-84
2021/10/06 06:05:01;;;;;;;17.67;6.00;;;;;;;15.78;37.32;102855.88;1744620;82;20996;-81
2021/10/06 06:07:28;;;;;;;10.23;5.67;;;;;;;16.14;36.18;102841.41;1744497;80;20960;-81
2021/10/06 06:09:55;;;;;;;13.08;5.67;;;;;;;16.51;36.21;102847.54;1744448;81;20866;-81
2021/10/06 06:12:22;;;;;;;12.98;5.92;;;;;;;17.01;35.18;102845.97;1744410;82;20980;-80
2021/10/06 06:14:49;;;;;;;14.18;5.87;;;;;;;17.47;34.22;102850.63;1744575;81;21084;-81
2021/10/06 06:17:15;;;;;;;11.05;5.83;;;;;;;17.88;32.91;102857.72;1744687;82;20984;-78
2021/10/06 06:19:42;;;;;;;16.55;7.83;;;;;;;18.21;32.45;102858.11;1744618;81;20933;-79
2021/10/06 06:22:10;;;;;;;11.88;6.12;;;;;;;18.46;31.44;102855.38;1745014;82;20951;-80
2021/10/06 06:24:36;;;;;;;10.10;4.72;;;;;;;18.70;31.81;102849.08;1745354;81;20924;-81
2021/10/06 06:27:04;;;;;;;12.50;6.28;;;;;;;18.97;30.52;102840.84;1748154;81;21458;-82
2021/10/06 06:29:31;;;;;;;12.78;4.58;;;;;;;19.10;30.03;102846.73;1747850;78;20964;-79
2021/10/06 06:31:58;;;;;;;10.10;5.37;;;;;;;19.22;30.07;102842.86;1748152;79;21000;-80
2021/10/06 06:34:25;;;;;;;15.70;4.72;;;;;;;19.45;29.32;102852.55;1747818;78;20921;-79
2021/10/06 06:36:52;;;;;;;14.78;4.97;;;;;;;19.66;29.55;102839.73;1748242;78;20948;-81
2021/10/06 06:39:19;;;;;;;14.55;3.60;;;;;;;19.93;29.35;102843.80;1747636;79;21102;-81
2021/10/06 06:41:46;;;;;;;12.25;3.30;;;;;;;19.88;28.47;102853.89;1748320;81;20874;-80
2021/10/06 06:44:12;;;;;;;13.32;3.10;;;;;;;19.40;27.92;102855.98;1748107;79;20901;-79
2021/10/06 06:46:39;;;;;;;9.18;4.20;;;;;;;18.47;28.94;102845.12;1747981;82;20862;-80
2021/10/06 06:49:06;;;;;;;10.05;3.25;;;;;;;17.63;30.03;102851.54;1747966;81;20865;-81
2021/10/06 06:51:33;;;;;;;9.65;4.00;;;;;;;17.04;31.35;102856.41;1747353;81;21130;-77
2021/10/06 06:54:00;;;;;;;5.90;3.15;;;;;;;16.84;31.72;102843.32;1747325;81;20901;-80
2021/10/06 06:56:27;;;;;;;9.08;4.05;;;;;;;17.04;31.94;102843.15;1747555;81;20881;-80
2021/10/06 06:58:54;;;;;;;11.28;3.17;;;;;;;17.51;31.75;102848.20;1747203;82;20874;-77
2021/10/06 07:01:21;;;;;;;8.68;3.37;;;;;;;18.11;31.15;102845.80;1754137;81;20967;-76
2021/10/06 07:03:48;;;;;;;24.92;5.95;;;;;;;18.74;30.50;102847.95;1758447;81;21112;-76
2021/10/06 07:06:15;;;;;;;10.70;3.55;;;;;;;19.27;29.29;102843.91;1758466;81;20865;-75
2021/10/06 07:08:47;;;;;;;17.65;5.53;;;;;;;19.69;28.56;102850.20;1758052;81;20940;-75
2021/10/06 07:11:11;;;;;;;9.70;3.83;;;;;;;20.09;28.07;102849.83;1757641;81;21397;-75
2021/10/06 07:13:37;;;;;;;8.38;3.05;;;;;;;20.48;27.78;102846.84;1758182;81;21014;-76
2021/10/06 07:16:05;;;;;;;13.43;3.77;;;;;;;20.88;27.26;102860.67;1758029;81;21509;-74
2021/10/06 07:18:31;;;;;;;6.30;3.50;;;;;;;21.23;26.27;102846.70;1758062;81;21397;-76
2021/10/06 07:20:58;;;;;;;12.85;3.12;;;;;;;21.52;26.15;102854.02;1757850;81;20995;-77
2021/10/06 07:23:25;;;;;;;13.35;3.10;;;;;;;21.68;25.46;102854.64;1757956;80;20927;-76
2021/10/06 07:25:52;;;;;;;4.87;2.87;;;;;;;21.90;24.63;102852.62;1757971;81;20960;-76
2021/10/06 07:28:19;;;;;;;11.25;2.75;;;;;;;22.08;24.78;102847.74;1757907;80;21132;-75
2021/10/06 07:30:45;;;;;;;9.75;3.08;;;;;;;22.10;24.87;102844.97;1757875;81;20928;-76
2021/10/06 07:33:12;;;;;;;9.75;2.75;;;;;;;22.08;24.55;102846.90;1758077;81;20920;-75
2021/10/06 07:35:40;;;;;;;8.68;3.08;;;;;;;22.22;24.27;102846.75;1757839;81;21069;-74
2021/10/06 07:38:06;;;;;;;12.53;2.62;;;;;;;22.46;24.21;102839.20;1757958;81;20896;-75
2021/10/06 07:40:33;;;;;;;21.80;3.40;;;;;;;22.73;23.87;102834.91;1757756;81;21049;-74
2021/10/06 07:43:01;;;;;;;6.55;2.05;;;;;;;22.83;22.78;102832.38;1757510;81;20933;-74
2021/10/06 07:45:28;;;;;;;12.07;3.10;;;;;;;22.70;22.59;102823.97;1757877;81;20994;-75
2021/10/06 07:47:54;;;;;;;8.25;2.60;;;;;;;22.72;23.45;102838.55;1757840;81;20869;-74
2021/10/06 07:50:21;;;;;;;12.65;2.90;;;;;;;22.77;22.76;102825.69;1758086;80;20936;-73
2021/10/06 07:52:48;;;;;;;11.75;2.30;;;;;;;22.62;22.24;102829.05;1758214;80;21493;-75
2021/10/06 07:55:15;;;;;;;8.25;2.62;;;;;;;22.34;22.62;102812.89;1757688;81;20853;-75
2021/10/06 07:57:42;;;;;;;7.35;2.30;;;;;;;22.34;22.68;102816.44;1758488;80;20971;-76
2021/10/06 08:00:10;;;;;;;8.48;2.50;;;;;;;22.45;22.74;102811.59;1757924;80;20894;-77
2021/10/06 08:02:41;;;;;;;20.12;2.92;;;;;;;22.53;22.62;102807.86;1757859;81;21445;-77
2021/10/06 08:05:08;;;;;;;24.47;4.00;;;;;;;22.58;21.50;102800.82;1757965;81;21036;-76
2021/10/06 08:07:35;;;;;;;21.50;2.08;;;;;;;22.59;21.86;102813.24;1757795;80;20913;-77
2021/10/06 08:10:03;;;;;;;16.73;2.37;;;;;;;22.53;20.65;102794.98;1757812;81;21433;-76
2021/10/06 08:12:30;;;;;;;21.10;2.70;;;;;;;22.36;21.00;102806.95;1757851;81;21506;-77
2021/10/06 08:14:58;;;;;;;15.85;2.17;;;;;;;22.20;21.68;102813.90;1757933;81;21018;-78
2021/10/06 08:17:25;;;;;;;13.62;1.92;;;;;;;22.10;21.43;102813.75;1757897;81;21761;-77
2021/10/06 08:19:52;;;;;;;15.83;2.70;;;;;;;22.07;21.47;102801.08;1757833;81;20912;-78
2021/10/06 08:22:19;;;;;;;18.77;2.65;;;;;;;22.12;22.07;102801.12;1757829;81;21416;-78
2021/10/06 08:24:46;;;;;;;14.75;3.67;;;;;;;22.50;21.02;102788.52;1757906;81;20904;-77
2021/10/06 08:27:13;;;;;;;11.83;2.15;;;;;;;22.71;20.94;102805.59;1757701;80;20841;-78
2021/10/06 08:29:41;;;;;;;14.73;2.37;;;;;;;22.64;20.84;102792.34;1757889;81;21556;-77
2021/10/06 08:32:08;;;;;;;17.75;3.05;;;;;;;22.59;21.00;102786.95;1757785;81;21006;-78
2021/10/06 08:34:36;;;;;;;12.37;2.80;;;;;;;22.71;21.23;102784.20;1757859;81;20923;-80
2021/10/06 08:37:03;;;;;;;20.55;2.90;;;;;;;22.86;21.41;102778.16;1757916;81;21264;-79
2021/10/06 08:39:31;;;;;;;19.40;3.20;;;;;;;23.02;20.72;102773.81;1758076;80;21477;-74
2021/10/06 08:41:58;;;;;;;18.60;3.27;;;;;;;23.14;20.07;102783.56;1757893;81;21586;-74
2021/10/06 08:44:28;;;;;;;16.97;2.98;;;;;;;23.21;19.40;102769.66;1757899;81;21322;-75
2021/10/06 08:46:54;;;;;;;10.82;2.12;;;;;;;23.04;19.21;102781.23;1740579;81;20900;-76
2021/10/06 08:49:21;;;;;;;7.60;1.80;;;;;;;22.73;19.23;102777.41;1757942;81;21409;-75
2021/10/06 08:51:48;;;;;;;11.63;2.17;;;;;;;22.45;19.64;102796.05;1758235;81;21468;-75
2021/10/06 08:54:15;;;;;;;14.10;2.25;;;;;;;22.25;20.13;102780.17;1758044;81;21497;-77
2021/10/06 08:56:43;;;;;;;13.55;2.00;;;;;;;22.17;20.17;102780.73;1758190;81;21035;-78
2021/10/06 08:59:10;;;;;;;8.48;2.65;;;;;;;22.11;20.12;102751.30;1757800;80;21425;-76
2021/10/06 09:01:37;;;;;;;15.68;3.10;;;;;;;22.21;20.42;102788.02;1751086;80;20889;-79
2021/10/06 09:04:05;;;;;;;9.23;2.00;;;;;;;22.21;19.85;102755.48;1686295;82;21303;-76
2021/10/06 09:06:39;;;;;;;8.45;1.60;;;;;;;22.25;19.98;102757.45;1744506;81;21244;-77
2021/10/06 09:09:22;;;;;;;12.53;1.82;;;;;;;22.39;19.49;102786.69;1744762;80;20920;-77
2021/10/06 09:11:53;;;;;;;6.28;1.47;;;;;;;22.31;19.94;102758.33;1744498;81;20881;-77
2021/10/06 09:14:22;;;;;;;9.15;2.33;;;;;;;22.30;19.96;102731.25;1744466;81;21425;-77
2021/10/06 09:17:10;;;;;;;13.38;2.30;;;;;;;22.47;19.97;102739.29;1744807;82;21007;-77
2021/10/06 09:19:46;;;;;;;15.68;2.27;;;;;;;22.72;19.87;102746.25;1744587;82;21135;-78
2021/10/06 09:22:18;;;;;;;9.03;2.47;;;;;;;22.87;19.23;102745.55;1744590;81;20885;-78
2021/10/06 09:25:05;;;;;;;21.67;2.87;;;;;;;22.92;18.79;102755.39;1744692;80;20897;-77
2021/10/06 09:27:35;;;;;;;13.88;1.70;;;;;;;22.80;18.89;102748.34;1744667;80;20933;-76
2021/10/06 09:30:06;;;;;;;13.60;2.00;;;;;;;22.64;19.13;102745.53;1744484;81;21015;-76
2021/10/06 09:32:41;;;;;;;11.75;2.47;;;;;;;22.48;19.46;102743.69;1744740;81;21109;-77
2021/10/06 09:35:20;;;;;;;11.45;2.47;;;;;;;22.45;19.44;102742.56;1744399;81;20964;-75
2021/10/06 09:37:52;;;;;;;20.52;3.12;;;;;;;22.49;18.92;102750.72;1744856;82;20909;-76
2021/10/06 09:40:25;;;;;;;21.10;2.50;;;;;;;22.28;18.87;102741.20;1744475;81;21466;-76
2021/10/06 09:42:58;;;;;;;9.73;1.80;;;;;;;22.04;19.39;102738.53;1744918;82;20975;-77
2021/10/06 09:45:32;;;;;;;7.58;1.80;;;;;;;22.11;19.63;102741.94;1744693;81;21370;-78
2021/10/06 09:48:09;;;;;;;15.78;2.67;;;;;;;22.39;19.64;102724.31;1744643;82;21453;-78
2021/10/06 09:50:44;;;;;;;10.72;2.20;;;;;;;22.67;19.03;102722.55;1744351;81;21485;-76
2021/10/06 09:53:19;;;;;;;18.60;2.62;;;;;;;22.87;19.26;102736.19;1744760;81;21354;-77
2021/10/06 09:55:50;;;;;;;20.15;2.72;;;;;;;23.01;18.97;102718.59;1744438;80;20873;-80
2021/10/06 09:58:18;;;;;;;9.73;2.92;;;;;;;23.14;19.09;102730.49;1744750;80;21418;-78
2021/10/06 10:00:46;;;;;;;26.85;3.27;;;;;;;23.29;19.00;102702.98;1744522;82;20966;-78
2021/10/06 10:03:13;;;;;;;21.37;3.33;;;;;;;23.21;17.76;102715.66;1744479;81;20913;-79
2021/10/06 10:05:40;;;;;;;20.17;4.40;;;;;;;22.95;18.33;102718.55;1744553;81;20949;-79
2021/10/06 10:08:10;;;;;;;18.12;2.55;;;;;;;22.90;18.03;102707.84;1744505;81;21492;-78
2021/10/06 10:10:37;;;;;;;23.22;2.65;;;;;;;22.74;18.19;102714.89;1744496;81;21186;-78
2021/10/06 10:15:51;;;;;;;21.20;2.70;;;;;;;22.55;18.53;102708.31;1798462;79;22624;-78
2021/10/06 10:18:18;;;;;;;18.30;2.27;;;;;;;22.45;18.42;102701.97;1758235;80;20888;-82
2021/10/06 10:20:45;;;;;;;14.38;2.60;;;;;;;22.46;18.81;102702.84;1696327;83;21136;-78
2021/10/06 10:23:17;;;;;;;14.05;2.35;;;;;;;22.53;19.34;102696.88;1724881;83;20958;-78
2021/10/06 10:25:45;;;;;;;14.23;2.30;;;;;;;22.54;18.18;102693.72;1720186;83;20982;-80
2021/10/06 10:28:23;;;;;;;10.23;2.20;;;;;;;22.44;18.29;102686.91;1724944;81;21139;-79
2021/10/06 10:30:58;;;;;;;19.92;2.92;;;;;;;22.41;18.66;102691.63;1724812;83;20859;-77
2021/10/06 10:33:44;;;;;;;17.05;3.05;;;;;;;22.46;18.95;102691.66;1725123;82;21136;-78
2021/10/06 10:36:34;;;;;;;13.32;2.50;;;;;;;22.45;18.16;102707.80;1724801;82;20943;-76
2021/10/06 10:39:03;;;;;;;15.68;2.45;;;;;;;22.20;18.94;102700.80;1725082;83;20832;-76
2021/10/06 10:41:48;;;;;;;17.02;2.05;;;;;;;21.92;18.80;102689.06;1724640;83;20892;-78
2021/10/06 10:44:24;;;;;;;19.57;2.83;;;;;;;21.71;19.04;102674.14;1724902;83;20943;-76
2021/10/06 10:47:01;;;;;;;20.50;2.45;;;;;;;21.58;19.48;102671.17;1724342;81;21129;-77
2021/10/06 10:49:52;;;;;;;17.48;2.30;;;;;;;21.50;19.67;102676.59;1724984;83;20881;-78
2021/10/06 10:52:17;;;;;;;14.78;2.35;;;;;;;21.57;19.60;102677.49;1724778;82;20947;-78
2021/10/06 10:54:47;;;;;;;19.25;3.55;;;;;;;21.49;19.90;102675.37;1725041;83;21480;-77
2021/10/06 10:57:20;;;;;;;25.60;3.50;;;;;;;21.36;20.00;102678.05;1724587;83;20943;-77
2021/10/06 10:59:50;;;;;;;14.20;3.45;;;;;;;21.21;20.03;102675.16;1725215;81;21767;-75
2021/10/06 11:02:29;;;;;;;29.00;3.95;;;;;;;20.95;19.85;102673.05;1724600;81;20887;-76
2021/10/06 11:05:07;;;;;;;18.15;2.40;;;;;;;20.56;19.98;102673.04;1725101;83;20947;-76
2021/10/06 11:07:50;;;;;;;13.50;2.83;;;;;;;20.03;20.41;102660.26;1724736;83;21404;-77
2021/10/06 11:10:18;;;;;;;16.70;5.97;;;;;;;19.55;20.49;102666.55;1724981;83;20970;-76
2021/10/06 11:12:55;;;;;;;13.78;2.27;;;;;;;19.09;21.01;102684.13;1724739;82;21171;-76
2021/10/06 11:15:25;;;;;;;23.00;2.85;;;;;;;18.67;21.34;102664.07;1718388;83;21422;-76
2021/10/06 11:18:21;;;;;;;18.80;3.22;;;;;;;18.39;21.97;102662.27;1716939;83;20915;-78
2021/10/06 11:20:59;;;;;;;27.58;3.35;;;;;;;18.20;22.49;102655.38;1716311;83;20892;-76
2021/10/06 11:23:39;;;;;;;23.05;4.00;;;;;;;17.85;22.74;102664.58;1717098;83;20931;-76
2021/10/06 11:26:22;;;;;;;21.00;5.65;;;;;;;17.54;22.53;102667.63;1753171;81;21071;-75
2021/10/06 11:28:51;;;;;;;27.82;9.25;;;;;;;17.20;23.53;102657.11;1758377;80;20924;-74